createdAt,value
2018-07-15T00:02:18.609Z,85.50
2018-07-15T00:04:46.801Z,85.90
2018-07-15T00:07:15.005Z,85.80
2018-07-15T00:09:43.186Z,86.00
2018-07-15T00:12:11.363Z,86.10
2018-07-15T00:14:39.537Z,86.20
2018-07-15T00:17:07.723Z,86.00
2018-07-15T00:19:35.927Z,85.90
2018-07-15T00:22:04.086Z,85.80
2018-07-15T00:24:32.238Z,86.00
2018-07-15T00:27:00.398Z,86.10
2018-07-15T00:29:28.553Z,86.20
2018-07-15T00:31:56.739Z,86.20
2018-07-15T00:34:24.984Z,86.20
2018-07-15T00:36:53.197Z,86.20
2018-07-15T00:39:21.366Z,86.20
2018-07-15T00:41:49.550Z,86.10
2018-07-15T00:44:17.706Z,86.10
2018-07-15T00:46:45.874Z,86.30
2018-07-15T00:49:14.028Z,86.50
2018-07-15T00:51:42.339Z,86.40
2018-07-15T00:54:10.490Z,86.50
2018-07-15T00:56:38.718Z,86.30
2018-07-15T00:59:07.094Z,86.90
2018-07-15T01:01:35.570Z,86.30
2018-07-15T01:04:03.722Z,86.10
2018-07-15T01:06:31.906Z,85.80
2018-07-15T01:09:00.074Z,85.70
2018-07-15T01:11:28.280Z,85.70
2018-07-15T01:13:56.467Z,86.20
2018-07-15T01:16:24.886Z,86.40
2018-07-15T01:18:53.052Z,86.60
2018-07-15T01:21:21.217Z,86.80
2018-07-15T01:23:49.374Z,86.80
2018-07-15T01:26:17.787Z,86.70
2018-07-15T01:28:45.959Z,87.00
2018-07-15T01:31:14.114Z,87.00
2018-07-15T01:33:42.282Z,87.00
2018-07-15T01:36:10.707Z,86.70
2018-07-15T01:38:38.863Z,86.60
2018-07-15T01:41:07.039Z,86.70
2018-07-15T01:43:35.253Z,86.60
2018-07-15T01:46:03.452Z,86.50
2018-07-15T01:48:31.605Z,86.60
2018-07-15T01:50:59.774Z,86.70
2018-07-15T01:53:28.106Z,86.80
2018-07-15T01:55:56.520Z,86.80
2018-07-15T01:58:24.687Z,86.90
2018-07-15T02:00:52.842Z,86.90
2018-07-15T02:03:21.405Z,86.90
2018-07-15T02:05:49.557Z,87.00
2018-07-15T02:10:45.674Z,87.00
2018-07-15T02:13:13.839Z,87.20
2018-07-15T02:15:42.007Z,87.10
2018-07-15T02:18:10.431Z,87.00
2018-07-15T02:20:38.908Z,87.00
2018-07-15T02:23:07.105Z,87.00
2018-07-15T02:25:35.338Z,87.30
2018-07-15T02:28:03.512Z,87.10
2018-07-15T02:30:31.654Z,87.10
2018-07-15T02:32:59.827Z,87.00
2018-07-15T02:35:27.978Z,87.10
2018-07-15T02:37:56.140Z,87.00
2018-07-15T02:40:24.314Z,87.00
2018-07-15T02:42:52.475Z,87.20
2018-07-15T02:45:20.667Z,87.20
2018-07-15T02:47:48.910Z,87.10
2018-07-15T02:50:17.080Z,87.20
2018-07-15T02:52:45.234Z,87.20
2018-07-15T02:55:13.461Z,87.30
2018-07-15T02:57:41.648Z,87.40
2018-07-15T03:00:09.828Z,87.10
2018-07-15T03:02:38.018Z,87.00
2018-07-15T03:05:06.202Z,87.00
2018-07-15T03:07:34.354Z,87.00
2018-07-15T03:10:02.522Z,87.00
2018-07-15T03:12:30.676Z,87.20
2018-07-15T03:14:58.827Z,87.40
2018-07-15T03:17:27.086Z,87.20
2018-07-15T03:19:55.138Z,87.00
2018-07-15T03:22:23.282Z,87.10
2018-07-15T03:24:51.439Z,86.80
2018-07-15T03:27:19.595Z,86.90
2018-07-15T03:29:47.798Z,87.00
2018-07-15T03:32:16.052Z,87.20
2018-07-15T03:34:44.228Z,87.40
2018-07-15T03:37:12.374Z,87.50
2018-07-15T03:39:40.543Z,87.30
2018-07-15T03:42:08.695Z,87.20
2018-07-15T03:44:36.842Z,87.20
2018-07-15T03:47:05.003Z,87.40
2018-07-15T03:49:33.166Z,87.10
2018-07-15T03:52:01.914Z,87.10
2018-07-15T03:54:30.283Z,87.20
2018-07-15T03:56:58.442Z,87.20
2018-07-15T03:59:26.605Z,87.10
2018-07-15T04:01:54.760Z,87.10
2018-07-15T04:04:22.953Z,87.10
2018-07-15T04:06:51.427Z,87.00
2018-07-15T04:09:19.664Z,87.40
2018-07-15T04:11:47.806Z,86.90
2018-07-15T04:14:15.958Z,86.90
2018-07-15T04:16:44.348Z,86.90
2018-07-15T04:19:12.499Z,87.30
2018-07-15T04:21:40.954Z,86.50
2018-07-15T04:24:09.105Z,86.40
2018-07-15T04:26:37.258Z,86.80
2018-07-15T04:29:05.423Z,86.80
2018-07-15T04:31:33.603Z,86.60
2018-07-15T04:34:01.758Z,86.70
2018-07-15T04:36:29.910Z,86.60
2018-07-15T04:38:58.112Z,86.30
2018-07-15T04:41:26.307Z,86.50
2018-07-15T04:43:54.546Z,86.50
2018-07-15T04:46:22.948Z,86.50
2018-07-15T04:48:51.103Z,86.40
2018-07-15T04:51:19.262Z,86.50
2018-07-15T04:53:47.410Z,86.50
2018-07-15T04:56:15.569Z,86.60
2018-07-15T04:58:43.724Z,86.70
2018-07-15T05:01:11.882Z,86.80
2018-07-15T05:03:40.031Z,87.00
2018-07-15T05:06:08.195Z,87.00
2018-07-15T05:08:36.698Z,87.60
2018-07-15T05:11:04.890Z,87.30
2018-07-15T05:13:33.106Z,87.40
2018-07-15T05:16:01.331Z,87.70
2018-07-15T05:18:29.529Z,87.40
2018-07-15T05:20:57.731Z,87.10
2018-07-15T05:23:25.915Z,87.10
2018-07-15T05:25:54.102Z,87.10
2018-07-15T05:28:22.279Z,87.10
2018-07-15T05:30:50.470Z,87.20
2018-07-15T05:33:18.651Z,87.10
2018-07-15T05:35:47.126Z,87.70
2018-07-15T05:38:15.307Z,87.10
2018-07-15T05:40:43.511Z,87.00
2018-07-15T05:43:11.942Z,87.10
2018-07-15T05:45:40.136Z,87.30
2018-07-15T05:48:08.344Z,87.20
2018-07-15T05:50:36.577Z,87.10
2018-07-15T05:53:04.783Z,87.00
2018-07-15T05:55:32.983Z,86.60
2018-07-15T05:58:01.536Z,86.60
2018-07-15T06:00:29.943Z,86.60
2018-07-15T06:02:58.134Z,86.90
2018-07-15T06:05:26.313Z,87.20
2018-07-15T06:07:54.482Z,86.40
2018-07-15T06:12:50.620Z,85.80
2018-07-15T06:15:18.766Z,85.40
2018-07-15T06:17:47.187Z,85.50
2018-07-15T06:20:15.334Z,85.50
2018-07-15T06:22:43.519Z,85.10
2018-07-15T06:25:11.681Z,84.60
2018-07-15T06:27:39.880Z,85.30
2018-07-15T06:30:08.049Z,84.40
2018-07-15T06:32:36.206Z,84.00
2018-07-15T06:35:04.598Z,83.30
2018-07-15T06:37:32.750Z,83.80
2018-07-15T06:40:01.568Z,83.40
2018-07-15T06:42:29.731Z,83.40
2018-07-15T06:44:57.882Z,82.40
2018-07-15T06:49:54.023Z,82.00
2018-07-15T06:52:22.189Z,82.00
2018-07-15T06:54:50.329Z,80.60
2018-07-15T06:57:18.644Z,80.80
2018-07-15T06:59:46.806Z,81.00
2018-07-15T07:04:43.100Z,79.60
2018-07-15T07:07:11.351Z,78.80
2018-07-15T07:09:39.474Z,78.60
2018-07-15T07:12:07.667Z,77.90
2018-07-15T07:14:35.841Z,78.60
2018-07-15T07:17:04.029Z,78.90
2018-07-15T07:19:32.519Z,78.40
2018-07-15T07:22:00.690Z,78.00
2018-07-15T07:24:28.887Z,77.20
2018-07-15T07:26:57.094Z,77.60
2018-07-15T07:29:25.370Z,77.90
2018-07-15T07:31:53.871Z,77.80
2018-07-15T07:34:22.063Z,76.80
2018-07-15T07:36:50.275Z,77.40
2018-07-15T07:39:18.516Z,77.60
2018-07-15T07:41:46.702Z,76.30
2018-07-15T07:44:14.891Z,76.80
2018-07-15T07:46:43.061Z,76.20
2018-07-15T07:49:11.699Z,74.90
2018-07-15T07:51:39.879Z,75.10
2018-07-15T07:54:08.066Z,73.80
2018-07-15T07:56:36.278Z,73.40
2018-07-15T07:59:04.533Z,71.60
2018-07-15T08:01:32.819Z,71.90
2018-07-15T08:04:01.014Z,73.70
2018-07-15T08:06:29.189Z,72.60
2018-07-15T08:08:57.466Z,68.70
2018-07-15T08:11:25.702Z,68.40
2018-07-15T08:13:53.959Z,68.80
2018-07-15T08:16:22.167Z,69.80
2018-07-15T08:18:50.386Z,69.20
2018-07-15T08:23:46.857Z,68.60
2018-07-15T08:26:15.039Z,70.20
2018-07-15T08:28:43.364Z,68.50
2018-07-15T08:31:14.986Z,67.30
2018-07-15T08:33:43.190Z,68.00
2018-07-15T08:36:11.795Z,68.00
2018-07-15T08:38:40.181Z,66.00
2018-07-15T08:41:08.406Z,66.00
2018-07-15T08:43:37.059Z,67.60
2018-07-15T08:46:05.857Z,66.50
2018-07-15T08:48:34.197Z,65.80
2018-07-15T08:51:02.686Z,65.70
2018-07-15T08:53:30.867Z,64.50
2018-07-15T08:55:59.087Z,63.90
2018-07-15T08:58:27.312Z,64.00
2018-07-15T09:00:55.536Z,64.60
2018-07-15T09:03:23.797Z,63.90
2018-07-15T09:05:51.931Z,62.80
2018-07-15T09:08:20.094Z,63.30
2018-07-15T09:10:48.259Z,62.80
2018-07-15T09:13:16.763Z,62.20
2018-07-15T09:15:44.918Z,64.80
2018-07-15T09:18:13.079Z,65.00
2018-07-15T09:20:41.235Z,62.90
2018-07-15T09:23:09.455Z,62.30
2018-07-15T09:25:37.710Z,62.30
2018-07-15T09:28:06.043Z,62.00
2018-07-15T09:30:34.198Z,61.40
2018-07-15T09:33:02.342Z,61.40
2018-07-15T09:35:30.519Z,61.40
2018-07-15T09:37:58.688Z,61.20
2018-07-15T09:40:26.908Z,60.50
2018-07-15T09:42:55.071Z,61.30
2018-07-15T09:45:23.230Z,60.80
2018-07-15T09:47:51.378Z,61.90
2018-07-15T09:50:19.548Z,59.60
2018-07-15T09:52:47.691Z,60.10
2018-07-15T09:55:15.858Z,59.20
2018-07-15T09:57:44.026Z,58.60
2018-07-15T10:00:16.424Z,57.80
2018-07-15T10:02:44.839Z,59.50
2018-07-15T10:05:13.002Z,56.30
2018-07-15T10:07:41.218Z,54.70
2018-07-15T10:10:09.343Z,56.50
2018-07-15T10:12:37.486Z,58.00
2018-07-15T10:15:05.646Z,54.30
2018-07-15T10:17:34.160Z,55.40
2018-07-15T10:20:02.357Z,56.60
2018-07-15T10:22:30.524Z,55.70
2018-07-15T10:24:58.691Z,53.00
2018-07-15T10:27:27.118Z,56.70
2018-07-15T10:29:55.271Z,54.40
2018-07-15T10:32:23.431Z,53.80
2018-07-15T10:34:52.027Z,53.90
2018-07-15T10:37:20.346Z,53.50
2018-07-15T10:39:48.501Z,52.80
2018-07-15T10:42:17.006Z,56.10
2018-07-15T10:44:45.182Z,53.50
2018-07-15T10:47:13.351Z,54.30
2018-07-15T10:49:41.758Z,52.60
2018-07-15T10:52:09.945Z,50.70
2018-07-15T10:54:38.367Z,53.20
2018-07-15T10:57:06.543Z,51.80
2018-07-15T10:59:34.737Z,53.80
2018-07-15T11:02:02.915Z,51.60
2018-07-15T11:04:31.072Z,54.70
2018-07-15T11:06:59.258Z,56.20
2018-07-15T11:09:27.463Z,54.10
2018-07-15T11:11:56.091Z,53.40
2018-07-15T11:14:24.286Z,49.90
2018-07-15T11:16:53.193Z,50.50
2018-07-15T11:19:21.450Z,50.50
2018-07-15T11:21:50.112Z,50.50
2018-07-15T11:24:19.055Z,52.90
2018-07-15T11:26:47.271Z,50.30
2018-07-15T11:29:15.446Z,49.80
2018-07-15T11:31:43.642Z,47.60
2018-07-15T11:34:11.813Z,49.00
2018-07-15T11:36:40.383Z,53.00
2018-07-15T11:39:09.441Z,50.40
2018-07-15T11:41:37.655Z,50.00
2018-07-15T11:44:06.020Z,48.60
2018-07-15T11:46:34.211Z,47.40
2018-07-15T11:49:02.386Z,48.80
2018-07-15T11:51:30.572Z,49.60
2018-07-15T11:53:58.797Z,46.00
2018-07-15T11:56:27.052Z,45.10
2018-07-15T11:58:55.247Z,45.10
2018-07-15T12:01:23.433Z,42.30
2018-07-15T12:06:19.625Z,44.30
2018-07-15T12:08:47.851Z,44.90
2018-07-15T12:11:16.036Z,45.00
2018-07-15T12:13:44.234Z,46.00
2018-07-15T12:16:12.434Z,49.20
2018-07-15T12:18:40.627Z,48.00
2018-07-15T12:21:09.354Z,49.80
2018-07-15T12:23:37.542Z,48.90
2018-07-15T12:26:05.723Z,44.80
2018-07-15T12:28:33.922Z,48.30
2018-07-15T12:31:02.186Z,48.60
2018-07-15T12:33:30.463Z,46.50
2018-07-15T12:35:58.736Z,45.20
2018-07-15T12:38:27.073Z,43.40
2018-07-15T12:40:55.329Z,44.00
2018-07-15T12:43:23.616Z,40.40
2018-07-15T12:45:51.790Z,43.40
2018-07-15T12:48:20.007Z,41.70
2018-07-15T12:50:48.214Z,41.90
2018-07-15T12:53:16.402Z,41.60
2018-07-15T12:55:44.702Z,42.80
2018-07-15T12:58:12.877Z,45.10
2018-07-15T13:00:41.063Z,43.60
2018-07-15T13:03:09.289Z,43.80
2018-07-15T13:05:37.494Z,42.80
2018-07-15T13:08:05.681Z,43.90
2018-07-15T13:10:33.876Z,41.40
2018-07-15T13:13:02.125Z,41.40
2018-07-15T13:15:30.279Z,40.70
2018-07-15T13:17:58.467Z,42.70
2018-07-15T13:20:26.755Z,43.10
2018-07-15T13:22:54.956Z,43.20
2018-07-15T13:25:23.165Z,41.50
2018-07-15T13:27:51.340Z,46.10
2018-07-15T13:30:19.554Z,45.60
2018-07-15T13:32:47.734Z,40.30
2018-07-15T13:35:15.943Z,40.80
2018-07-15T13:37:44.415Z,41.50
2018-07-15T13:40:12.615Z,42.70
2018-07-15T13:42:40.772Z,43.50
2018-07-15T13:45:08.930Z,43.20
2018-07-15T13:47:37.097Z,45.70
2018-07-15T13:50:05.524Z,45.20
2018-07-15T13:52:33.721Z,45.10
2018-07-15T13:55:01.910Z,43.50
2018-07-15T13:57:30.068Z,45.20
2018-07-15T13:59:58.261Z,46.40
2018-07-15T14:02:26.652Z,47.70
2018-07-15T14:04:54.827Z,47.00
2018-07-15T14:07:23.140Z,44.60
2018-07-15T14:09:51.318Z,46.30
2018-07-15T14:12:19.505Z,48.50
2018-07-15T14:14:47.701Z,48.40
2018-07-15T14:17:15.878Z,49.20
2018-07-15T14:19:44.058Z,48.80
2018-07-15T14:22:12.584Z,49.10
2018-07-15T14:24:40.758Z,51.40
2018-07-15T14:27:08.945Z,51.50
2018-07-15T14:29:37.118Z,51.90
2018-07-15T14:32:05.309Z,52.00
2018-07-15T14:34:33.494Z,53.30
2018-07-15T14:37:01.678Z,53.90
2018-07-15T14:39:42.072Z,55.00
2018-07-15T14:42:10.357Z,55.50
2018-07-15T14:44:39.414Z,55.20
2018-07-15T14:47:07.610Z,56.20
2018-07-15T14:49:35.798Z,55.00
2018-07-15T14:52:04.018Z,55.80
2018-07-15T14:54:32.197Z,56.20
2018-07-15T14:57:00.387Z,56.00
2018-07-15T14:59:28.566Z,56.00
2018-07-15T15:01:57.270Z,57.10
2018-07-15T15:04:25.450Z,56.30
2018-07-15T15:06:53.639Z,56.60
2018-07-15T15:09:21.958Z,56.00
2018-07-15T15:11:50.113Z,58.00
2018-07-15T15:14:18.518Z,59.30
2018-07-15T15:16:46.690Z,60.10
2018-07-15T15:21:43.088Z,60.80
2018-07-15T15:24:11.252Z,59.70
2018-07-15T15:26:39.418Z,60.40
2018-07-15T15:29:07.595Z,60.50
2018-07-15T15:31:35.763Z,59.00
2018-07-15T15:34:03.982Z,59.40
2018-07-15T15:36:32.194Z,61.90
2018-07-15T15:39:00.351Z,62.40
2018-07-15T15:41:28.984Z,63.20
2018-07-15T15:43:57.261Z,64.10
2018-07-15T15:46:25.433Z,66.90
2018-07-15T15:48:53.602Z,67.80
2018-07-15T15:51:21.780Z,68.50
2018-07-15T15:53:49.946Z,68.90
2018-07-15T15:56:18.114Z,70.40
2018-07-15T15:58:46.275Z,70.90
2018-07-15T16:01:14.458Z,71.00
2018-07-15T16:03:42.880Z,70.10
2018-07-15T16:06:11.095Z,71.50
2018-07-15T16:08:39.575Z,70.30
2018-07-15T16:11:07.852Z,70.20
2018-07-15T16:13:36.405Z,71.60
2018-07-15T16:16:04.578Z,71.80
2018-07-15T16:18:32.742Z,70.10
2018-07-15T16:21:00.898Z,71.60
2018-07-15T16:23:29.054Z,69.30
2018-07-15T16:25:57.202Z,67.90
2018-07-15T16:28:25.363Z,69.50
2018-07-15T16:30:53.522Z,69.80
2018-07-15T16:33:21.686Z,70.00
2018-07-15T16:35:49.847Z,69.20
2018-07-15T16:38:18.011Z,68.70
2018-07-15T16:40:46.167Z,67.50
2018-07-15T16:43:14.362Z,68.10
2018-07-15T16:45:42.526Z,66.70
2018-07-15T16:48:10.709Z,66.20
2018-07-15T16:50:38.910Z,67.80
2018-07-15T16:53:07.087Z,67.50
2018-07-15T16:55:35.254Z,67.70
2018-07-15T16:58:03.409Z,67.70
2018-07-15T17:00:31.566Z,68.60
2018-07-15T17:02:59.748Z,68.80
2018-07-15T17:05:27.888Z,67.00
2018-07-15T17:07:56.315Z,66.80
2018-07-15T17:10:24.470Z,67.00
2018-07-15T17:12:52.845Z,68.30
2018-07-15T17:15:21.007Z,68.90
2018-07-15T17:17:49.170Z,67.40
2018-07-15T17:20:17.383Z,66.60
2018-07-15T17:22:45.543Z,67.50
2018-07-15T17:27:42.009Z,66.20
2018-07-15T17:30:10.193Z,66.20
2018-07-15T17:32:38.396Z,65.60
2018-07-15T17:35:07.117Z,66.00
2018-07-15T17:37:35.282Z,67.50
2018-07-15T17:40:03.438Z,67.30
2018-07-15T17:42:31.740Z,66.40
2018-07-15T17:45:00.210Z,66.20
2018-07-15T17:47:28.375Z,67.00
2018-07-15T17:49:57.349Z,67.80
2018-07-15T17:52:25.534Z,67.00
2018-07-15T17:54:53.719Z,66.30
2018-07-15T17:57:22.039Z,65.60
2018-07-15T17:59:50.203Z,65.90
2018-07-15T18:02:18.362Z,66.60
2018-07-15T18:04:46.581Z,65.00
2018-07-15T18:07:14.719Z,64.60
2018-07-15T18:09:42.958Z,64.70
2018-07-15T18:12:11.193Z,66.30
2018-07-15T18:14:39.419Z,67.00
2018-07-15T18:17:07.607Z,63.90
2018-07-15T18:19:35.781Z,64.80
2018-07-15T18:22:03.983Z,63.80
2018-07-15T18:24:32.207Z,65.00
2018-07-15T18:27:00.378Z,63.80
2018-07-15T18:29:28.607Z,64.60
2018-07-15T18:31:56.895Z,66.00
2018-07-15T18:34:25.083Z,64.90
2018-07-15T18:36:53.279Z,64.30
2018-07-15T18:39:21.462Z,64.60
2018-07-15T18:41:49.918Z,65.50
2018-07-15T18:44:18.113Z,66.60
2018-07-15T18:46:46.479Z,64.40
2018-07-15T18:49:14.704Z,65.30
2018-07-15T18:51:42.937Z,65.30
2018-07-15T18:54:11.175Z,66.50
2018-07-15T18:56:39.350Z,66.50
2018-07-15T18:59:07.958Z,65.80
2018-07-15T19:01:36.050Z,65.10
2018-07-15T19:04:04.347Z,65.80
2018-07-15T19:06:32.522Z,65.40
2018-07-15T19:09:00.692Z,65.90
2018-07-15T19:11:28.838Z,66.60
2018-07-15T19:13:57.003Z,65.90
2018-07-15T19:16:25.150Z,66.60
2018-07-15T19:18:53.306Z,67.10
2018-07-15T19:21:21.460Z,66.10
2018-07-15T19:23:49.607Z,67.50
2018-07-15T19:26:17.763Z,68.20
2018-07-15T19:28:46.206Z,66.70
2018-07-15T19:31:14.457Z,67.10
2018-07-15T19:33:42.846Z,67.60
2018-07-15T19:36:11.026Z,67.80
2018-07-15T19:38:39.147Z,68.50
2018-07-15T19:41:07.299Z,68.90
2018-07-15T19:43:35.491Z,69.70
2018-07-15T19:46:03.643Z,68.80
2018-07-15T19:48:31.919Z,69.80
2018-07-15T19:51:00.427Z,70.60
2018-07-15T19:53:28.578Z,70.50
2018-07-15T19:55:56.734Z,70.70
2018-07-15T19:58:24.919Z,71.30
2018-07-15T20:03:20.997Z,71.30
2018-07-15T20:05:49.218Z,71.50
2018-07-15T20:08:17.955Z,70.90
2018-07-15T20:10:46.797Z,71.70
2018-07-15T20:13:15.018Z,71.60
2018-07-15T20:15:43.263Z,72.10
2018-07-15T20:18:11.463Z,72.70
2018-07-15T20:20:40.243Z,72.20
2018-07-15T20:23:08.422Z,72.30
2018-07-15T20:25:37.283Z,73.20
2018-07-15T20:28:05.974Z,73.00
2018-07-15T20:30:34.164Z,73.80
2018-07-15T20:33:02.340Z,74.10
2018-07-15T20:35:30.577Z,74.20
2018-07-15T20:37:58.699Z,73.50
2018-07-15T20:40:26.887Z,74.20
2018-07-15T20:42:55.130Z,74.80
2018-07-15T20:45:23.314Z,74.40
2018-07-15T20:47:51.499Z,74.40
2018-07-15T20:50:19.693Z,74.80
2018-07-15T20:52:47.945Z,74.40
2018-07-15T20:55:16.184Z,74.40
2018-07-15T21:00:12.330Z,75.10
2018-07-15T21:02:40.916Z,76.60
2018-07-15T21:05:09.078Z,75.70
2018-07-15T21:07:37.268Z,76.40
2018-07-15T21:10:05.519Z,76.00
2018-07-15T21:12:33.709Z,75.90
2018-07-15T21:15:01.886Z,75.90
2018-07-15T21:17:30.086Z,76.40
2018-07-15T21:19:58.345Z,76.40
2018-07-15T21:22:26.767Z,75.90
2018-07-15T21:24:55.187Z,76.00
2018-07-15T21:27:23.374Z,76.60
2018-07-15T21:29:51.676Z,76.10
2018-07-15T21:32:19.871Z,76.80
2018-07-15T21:34:48.072Z,76.70
2018-07-15T21:37:16.264Z,77.40
2018-07-15T21:39:44.448Z,77.50
2018-07-15T21:42:12.636Z,77.10
2018-07-15T21:44:40.815Z,77.80
2018-07-15T21:47:09.007Z,77.90
2018-07-15T21:49:37.267Z,78.30
2018-07-15T21:52:05.458Z,78.20
2018-07-15T21:54:33.637Z,78.40
2018-07-15T21:57:01.827Z,77.90
2018-07-15T21:59:29.997Z,78.40
2018-07-15T22:01:58.186Z,78.60
2018-07-15T22:04:26.363Z,78.60
2018-07-15T22:07:06.004Z,78.60
2018-07-15T22:10:40.565Z,78.40
2018-07-15T22:13:08.690Z,78.70
2018-07-15T22:15:36.883Z,79.20
2018-07-15T22:18:05.175Z,79.20
2018-07-15T22:20:33.458Z,79.00
2018-07-15T22:23:01.720Z,78.90
2018-07-15T22:25:30.010Z,78.80
2018-07-15T22:27:58.248Z,78.90
2018-07-15T22:30:26.712Z,78.30
2018-07-15T22:32:54.903Z,78.60
2018-07-15T22:35:23.090Z,78.40
2018-07-15T22:37:51.266Z,78.70
2018-07-15T22:40:19.719Z,78.80
2018-07-15T22:42:47.902Z,78.10
2018-07-15T22:45:16.090Z,78.30
2018-07-15T22:47:44.298Z,78.40
2018-07-15T22:50:12.482Z,78.90
2018-07-15T22:52:40.662Z,78.70
2018-07-15T22:55:08.842Z,78.90
2018-07-15T22:57:37.025Z,79.00
2018-07-15T23:00:05.842Z,79.40
2018-07-15T23:02:34.046Z,79.80
2018-07-15T23:05:43.198Z,79.70
2018-07-15T23:08:11.692Z,79.20
2018-07-15T23:10:40.098Z,79.90
2018-07-15T23:13:09.358Z,79.80
2018-07-15T23:15:38.286Z,79.70
2018-07-15T23:18:06.495Z,80.10
2018-07-15T23:20:35.418Z,79.80
2018-07-15T23:23:04.514Z,80.20
2018-07-15T23:25:32.982Z,80.00
2018-07-15T23:28:01.809Z,80.10
2018-07-15T23:30:30.880Z,80.20
2018-07-15T23:32:59.900Z,80.60
2018-07-15T23:35:28.349Z,80.70
2018-07-15T23:37:56.538Z,80.60
2018-07-15T23:40:24.986Z,81.00
2018-07-15T23:42:53.678Z,80.70
2018-07-15T23:45:22.362Z,80.70
2018-07-15T23:47:50.514Z,80.70
2018-07-15T23:50:18.671Z,80.50
2018-07-15T23:52:47.112Z,80.30
2018-07-15T23:55:15.277Z,80.40
2018-07-15T23:57:43.446Z,80.50
